Time;durP1;ratioP1;P1;durP2;ratioP2;P2;SDS_P1;SDS_P2;PMS_P1;PMS_P2;Temp;Humidity;BMP_temperature;BMP_pressure;BME280_temperature;BME280_humidity;BME280_pressure;Samples;Min_cycle;Max_cycle;Signal;HPM_P1;HPM_P2
2022/12/05 00:03:09;;;;;;;36.10;22.17;;;3.90;99.90;;;;;;5106452;22;20201;-46
2022/12/05 00:05:39;;;;;;;38.63;24.05;;;3.90;99.90;;;;;;5055780;28;20032;-47
2022/12/05 00:08:05;;;;;;;36.67;23.17;;;3.90;99.90;;;;;;5076674;28;20039;-45
2022/12/05 00:10:30;;;;;;;34.47;21.77;;;3.90;99.90;;;;;;5089969;22;20053;-47
2022/12/05 00:12:56;;;;;;;35.67;22.65;;;3.90;99.90;;;;;;5056694;28;20417;-47
2022/12/05 00:15:21;;;;;;;36.97;22.48;;;4.00;99.90;;;;;;5053867;28;20131;-47
2022/12/05 00:17:47;;;;;;;34.53;22.63;;;3.90;99.90;;;;;;5037391;28;20403;-45
2022/12/05 00:20:13;;;;;;;35.75;23.08;;;3.90;99.90;;;;;;5055121;28;20059;-47
2022/12/05 00:22:40;;;;;;;37.08;23.42;;;;;;;;;;4626024;22;20048;-46
2022/12/05 00:25:07;;;;;;;32.90;20.33;;;3.90;99.90;;;;;;5071641;28;20048;-45
2022/12/05 00:27:33;;;;;;;30.55;18.65;;;4.00;99.90;;;;;;5072192;28;20043;-44
2022/12/05 00:29:59;;;;;;;32.50;21.73;;;3.90;99.90;;;;;;4834585;22;20663;-47
2022/12/05 00:32:25;;;;;;;33.65;23.50;;;4.00;99.90;;;;;;5039273;28;20422;-46
2022/12/05 00:34:50;;;;;;;33.33;21.73;;;3.90;99.90;;;;;;5040366;28;20063;-46
2022/12/05 00:37:16;;;;;;;34.20;21.80;;;4.00;99.90;;;;;;5042600;28;20049;-46
2022/12/05 00:39:41;;;;;;;30.90;22.30;;;4.10;99.90;;;;;;5038341;28;20515;-46
2022/12/05 00:42:07;;;;;;;33.22;20.83;;;4.30;99.90;;;;;;5037265;28;20040;-46
2022/12/05 00:44:34;;;;;;;30.48;18.65;;;4.20;99.90;;;;;;4774647;22;20065;-77
2022/12/05 00:46:59;;;;;;;34.40;20.40;;;4.10;99.90;;;;;;5081403;28;20047;-78
2022/12/05 00:49:25;;;;;;;33.13;20.80;;;4.10;99.90;;;;;;5061505;28;20052;-78
2022/12/05 00:51:50;;;;;;;30.67;19.52;;;4.00;99.90;;;;;;5086977;28;20147;-78
2022/12/05 00:54:16;;;;;;;28.60;20.00;;;4.10;99.90;;;;;;5092378;28;20047;-78
2022/12/05 00:56:43;;;;;;;33.80;21.08;;;4.10;99.90;;;;;;5085871;28;20186;-78
2022/12/05 00:59:15;;;;;;;32.22;20.58;;;4.30;99.90;;;;;;5079715;28;20382;-78
2022/12/05 01:01:42;;;;;;;32.92;19.50;;;4.10;99.90;;;;;;5060629;28;20048;-78
2022/12/05 01:04:13;;;;;;;27.85;18.52;;;4.10;99.90;;;;;;5085970;28;20052;-78
2022/12/05 01:06:40;;;;;;;35.03;21.75;;;4.60;99.90;;;;;;5081587;28;20051;-78
2022/12/05 01:09:06;;;;;;;28.40;19.63;;;4.10;99.90;;;;;;5086366;28;20039;-78
2022/12/05 01:11:32;;;;;;;29.90;19.77;;;4.10;99.90;;;;;;5087564;28;20036;-78
2022/12/05 01:13:58;;;;;;;27.35;20.27;;;4.10;99.90;;;;;;5071968;28;20158;-77
2022/12/05 01:16:35;;;;;;;29.35;19.08;;;4.10;99.90;;;;;;5081904;28;20147;-78
2022/12/05 01:19:22;;;;;;;27.08;16.90;;;4.10;99.90;;;;;;5047642;28;20041;-77
2022/12/05 01:21:49;;;;;;;26.83;17.67;;;4.20;99.90;;;;;;5049179;28;20040;-77
2022/12/05 01:24:15;;;;;;;29.70;16.52;;;4.20;99.90;;;;;;5083523;28;20047;-76
2022/12/05 01:26:42;;;;;;;26.38;16.33;;;4.20;99.90;;;;;;5084577;28;20123;-77
2022/12/05 01:29:09;;;;;;;24.20;16.50;;;4.30;99.90;;;;;;5085234;28;20130;-77
2022/12/05 01:31:36;;;;;;;28.65;19.52;;;4.20;99.90;;;;;;5067768;28;20040;-76
2022/12/05 01:34:04;;;;;;;26.00;17.95;;;4.30;99.90;;;;;;5077332;28;20040;-77
2022/12/05 01:36:30;;;;;;;29.48;19.52;;;4.30;99.90;;;;;;5083535;28;20039;-77
2022/12/05 01:38:56;;;;;;;30.67;20.40;;;4.40;99.90;;;;;;5080834;28;20052;-76
2022/12/05 01:41:31;;;;;;;29.00;18.92;;;4.40;99.90;;;;;;5077831;28;20062;-76
2022/12/05 01:44:02;;;;;;;25.83;16.00;;;4.40;99.90;;;;;;5074170;28;20048;-77
2022/12/05 01:46:32;;;;;;;26.20;16.08;;;4.40;99.90;;;;;;5074345;28;20494;-77
2022/12/05 01:49:09;;;;;;;30.65;20.83;;;4.40;99.90;;;;;;5073942;28;20048;-76
2022/12/05 01:51:38;;;;;;;27.38;18.17;;;4.40;99.90;;;;;;5077152;28;20052;-76
2022/12/05 01:54:04;;;;;;;29.88;19.77;;;4.40;99.90;;;;;;5076980;28;20037;-76
2022/12/05 01:56:32;;;;;;;29.73;18.88;;;4.40;99.90;;;;;;5076446;28;20055;-76
2022/12/05 01:58:59;;;;;;;32.25;20.92;;;4.40;99.90;;;;;;5058553;28;20104;-76
2022/12/05 02:01:25;;;;;;;28.37;18.93;;;4.40;99.90;;;;;;5078343;28;20521;-76
2022/12/05 02:03:56;;;;;;;32.47;21.25;;;4.40;99.90;;;;;;5085198;28;20041;-77
2022/12/05 02:06:23;;;;;;;27.88;18.48;;;4.40;99.90;;;;;;5077100;28;20094;-77
2022/12/05 02:08:51;;;;;;;31.00;19.92;;;4.40;99.90;;;;;;5065196;28;20063;-77
2022/12/05 02:11:17;;;;;;;25.95;16.40;;;4.40;99.90;;;;;;5059304;28;20087;-77
2022/12/05 02:13:51;;;;;;;30.50;18.98;;;4.50;99.90;;;;;;5077059;28;20462;-77
2022/12/05 02:16:46;;;;;;;24.20;15.77;;;4.50;99.90;;;;;;5085632;28;20071;-77
2022/12/05 02:19:40;;;;;;;31.83;20.98;;;4.50;99.90;;;;;;5080258;28;20047;-77
2022/12/05 02:22:43;;;;;;;28.60;18.95;;;4.50;99.90;;;;;;5075875;28;20041;-77
2022/12/05 02:25:20;;;;;;;30.30;20.98;;;4.50;99.90;;;;;;5078858;28;20044;-77
2022/12/05 02:28:07;;;;;;;31.25;21.70;;;4.50;99.90;;;;;;5096017;28;20081;-77
2022/12/05 02:30:57;;;;;;;25.73;16.77;;;4.50;99.90;;;;;;5105789;28;20087;-77
2022/12/05 02:33:34;;;;;;;30.48;19.85;;;4.50;99.90;;;;;;5080778;28;20044;-77
2022/12/05 02:36:15;;;;;;;27.77;18.80;;;4.50;99.90;;;;;;5079409;28;20040;-77
2022/12/05 02:39:14;;;;;;;26.33;17.02;;;4.50;99.90;;;;;;5084855;28;20044;-77
2022/12/05 02:42:00;;;;;;;30.02;20.75;;;4.60;99.90;;;;;;5084895;28;20045;-77
2022/12/05 02:44:38;;;;;;;29.83;20.08;;;4.60;99.90;;;;;;5076604;28;20470;-77
2022/12/05 02:47:06;;;;;;;31.95;19.73;;;4.60;99.90;;;;;;5079174;28;20140;-76
2022/12/05 02:49:35;;;;;;;32.97;21.80;;;4.60;99.90;;;;;;5078595;28;20056;-77
2022/12/05 02:52:04;;;;;;;31.50;20.85;;;4.60;99.90;;;;;;5079989;28;20036;-77
2022/12/05 02:54:35;;;;;;;34.88;21.95;;;4.60;99.90;;;;;;5081046;28;20471;-77
2022/12/05 02:57:01;;;;;;;31.05;20.92;;;4.60;99.90;;;;;;5073771;28;20039;-77
2022/12/05 02:59:27;;;;;;;32.03;22.33;;;4.60;99.90;;;;;;5074211;28;20199;-77
2022/12/05 03:01:53;;;;;;;34.83;21.70;;;4.60;99.90;;;;;;5078667;28;20551;-76
2022/12/05 03:04:20;;;;;;;31.42;22.10;;;4.60;99.90;;;;;;5059933;28;20053;-78
2022/12/05 03:07:03;;;;;;;30.70;22.20;;;4.60;99.90;;;;;;5078728;28;20593;-77
2022/12/05 03:09:54;;;;;;;31.90;19.33;;;4.60;99.90;;;;;;5072041;28;20112;-77
2022/12/05 03:12:41;;;;;;;33.13;22.85;;;4.60;99.90;;;;;;5074928;28;20052;-77
2022/12/05 03:15:16;;;;;;;33.03;22.88;;;4.60;99.90;;;;;;5073130;28;20498;-77
2022/12/05 03:17:54;;;;;;;30.52;21.02;;;4.60;99.90;;;;;;5077633;28;20478;-77
2022/12/05 03:20:30;;;;;;;32.75;20.88;;;4.60;99.90;;;;;;5059371;28;20056;-77
2022/12/05 03:23:02;;;;;;;31.50;21.00;;;4.60;99.90;;;;;;5073405;28;20192;-77
2022/12/05 03:25:59;;;;;;;34.20;23.50;;;4.70;99.90;;;;;;5077186;28;20036;-78
2022/12/05 03:28:58;;;;;;;31.15;20.38;;;4.60;99.90;;;;;;5053947;28;20064;-77
2022/12/05 03:31:37;;;;;;;33.78;23.02;;;4.70;99.90;;;;;;5074404;28;20132;-77
2022/12/05 03:34:06;;;;;;;35.33;22.23;;;4.70;99.90;;;;;;5073650;28;20052;-77
2022/12/05 03:36:39;;;;;;;33.80;22.35;;;4.70;99.90;;;;;;5077647;28;20075;-77
2022/12/05 03:39:16;;;;;;;35.33;24.02;;;4.70;99.90;;;;;;5077564;28;20044;-76
2022/12/05 03:41:50;;;;;;;34.58;22.75;;;4.70;99.90;;;;;;5073612;28;20044;-76
2022/12/05 03:44:26;;;;;;;33.22;22.90;;;4.70;99.90;;;;;;5074128;28;20665;-77
2022/12/05 03:47:18;;;;;;;32.97;22.23;;;4.70;99.90;;;;;;5064855;28;20055;-77
2022/12/05 03:49:48;;;;;;;33.03;21.85;;;4.70;99.90;;;;;;5084397;28;20374;-77
2022/12/05 03:52:30;;;;;;;34.40;21.30;;;4.60;99.90;;;;;;5077881;28;20067;-77
2022/12/05 03:54:59;;;;;;;26.63;17.55;;;4.70;99.90;;;;;;5050043;28;20040;-77
2022/12/05 03:57:28;;;;;;;34.63;23.85;;;4.70;99.90;;;;;;5069384;28;20115;-77
2022/12/05 03:59:53;;;;;;;35.85;22.02;;;4.70;99.90;;;;;;5081733;28;20372;-76
2022/12/05 04:02:59;;;;;;;32.38;22.83;;;4.70;99.90;;;;;;5080544;28;20056;-76
2022/12/05 04:05:38;;;;;;;36.13;23.77;;;4.70;99.90;;;;;;5056535;28;20167;-77
2022/12/05 04:08:12;;;;;;;33.30;23.30;;;4.70;99.90;;;;;;5082946;28;20051;-77
2022/12/05 04:10:47;;;;;;;36.70;24.58;;;4.70;99.90;;;;;;5061296;28;20082;-77
2022/12/05 04:13:18;;;;;;;39.55;24.15;;;4.70;99.90;;;;;;5060605;28;20040;-78
2022/12/05 04:18:48;;;;;;;32.83;22.30;;;4.70;99.90;;;;;;5080407;28;20044;-77
2022/12/05 04:26:52;;;;;;;35.78;22.35;;;4.70;99.90;;;;;;5083729;28;20093;-78
2022/12/05 04:29:28;;;;;;;35.72;23.67;;;4.70;99.90;;;;;;5092592;28;20047;-78
2022/12/05 04:32:00;;;;;;;38.85;24.35;;;4.70;99.90;;;;;;5072978;28;20046;-78
2022/12/05 04:34:28;;;;;;;38.88;23.38;;;4.70;99.90;;;;;;5090189;28;20048;-78
2022/12/05 04:37:02;;;;;;;37.17;23.83;;;4.60;99.90;;;;;;5094468;28;20040;-78
2022/12/05 04:39:49;;;;;;;38.40;23.88;;;4.60;99.90;;;;;;5093385;28;20044;-79
2022/12/05 04:42:22;;;;;;;36.30;23.35;;;4.70;99.90;;;;;;5075184;28;20478;-78
2022/12/05 04:45:03;;;;;;;40.60;23.92;;;4.70;99.90;;;;;;5093705;28;20056;-78
2022/12/05 04:47:38;;;;;;;35.67;21.35;;;4.70;99.90;;;;;;5060791;28;20089;-78
2022/12/05 04:50:06;;;;;;;36.47;20.75;;;4.60;99.90;;;;;;5091719;28;20044;-77
2022/12/05 04:52:33;;;;;;;40.35;24.67;;;4.60;99.90;;;;;;5070922;28;20080;-77
2022/12/05 04:55:07;;;;;;;39.40;22.92;;;4.60;99.90;;;;;;5076601;28;20493;-77
2022/12/05 04:57:41;;;;;;;42.35;24.30;;;4.60;99.90;;;;;;5089629;28;20047;-77
2022/12/05 05:00:07;;;;;;;36.92;22.52;;;4.60;99.90;;;;;;5091661;28;20135;-76
2022/12/05 05:02:43;;;;;;;33.83;20.20;;;4.70;99.90;;;;;;5068741;28;20498;-77
2022/12/05 05:05:12;;;;;;;38.50;22.83;;;4.70;99.90;;;;;;5088943;28;20131;-76
2022/12/05 05:08:14;;;;;;;38.80;21.77;;;4.60;99.90;;;;;;5079114;28;20043;-77
2022/12/05 05:10:49;;;;;;;40.60;23.67;;;4.60;99.90;;;;;;5074889;28;20418;-77
2022/12/05 05:13:15;;;;;;;42.53;23.60;;;4.70;99.90;;;;;;5088434;28;20123;-77
2022/12/05 05:15:40;;;;;;;40.70;23.38;;;4.70;99.90;;;;;;5088132;28;20464;-78
2022/12/05 05:18:07;;;;;;;47.05;26.00;;;4.70;99.90;;;;;;5066307;28;20438;-77
2022/12/05 05:20:33;;;;;;;44.42;25.30;;;4.70;99.90;;;;;;5078476;28;20062;-77
2022/12/05 05:22:59;;;;;;;45.55;26.20;;;;;;;;;;5089545;28;20048;-77
2022/12/05 05:25:25;;;;;;;44.45;26.38;;;4.70;99.90;;;;;;5083616;28;20043;-76
2022/12/05 05:27:53;;;;;;;44.08;25.95;;;4.70;99.90;;;;;;5081467;28;20044;-76
2022/12/05 05:30:21;;;;;;;41.10;24.45;;;4.70;99.90;;;;;;5082758;28;20046;-76
2022/12/05 05:32:46;;;;;;;38.47;20.80;;;4.70;99.90;;;;;;5085915;28;20044;-76
2022/12/05 05:35:13;;;;;;;40.70;24.15;;;4.70;99.90;;;;;;5076165;28;20048;-77
2022/12/05 05:37:39;;;;;;;37.35;24.95;;;4.80;99.90;;;;;;5084095;28;20048;-76
2022/12/05 05:40:09;;;;;;;33.35;19.67;;;4.80;99.90;;;;;;5085127;28;20086;-76
2022/12/05 05:42:35;;;;;;;43.28;25.00;;;4.70;99.90;;;;;;5085023;28;20075;-76
2022/12/05 05:45:00;;;;;;;33.25;18.77;;;4.80;99.90;;;;;;5077100;28;20095;-76
2022/12/05 05:47:26;;;;;;;39.70;23.35;;;4.70;99.90;;;;;;5078373;28;20113;-76
2022/12/05 05:49:53;;;;;;;38.03;22.33;;;4.80;99.90;;;;;;5083174;28;20099;-77
2022/12/05 05:52:18;;;;;;;37.78;23.58;;;4.70;99.90;;;;;;5076952;28;20036;-76
2022/12/05 05:54:44;;;;;;;42.58;24.23;;;4.80;99.90;;;;;;5075174;28;20059;-76
2022/12/05 05:57:09;;;;;;;36.78;24.20;;;4.80;99.90;;;;;;5078789;28;20044;-76
2022/12/05 05:59:35;;;;;;;39.35;23.25;;;4.80;99.90;;;;;;5067390;28;20104;-76
2022/12/05 06:02:00;;;;;;;39.78;24.15;;;4.80;99.90;;;;;;5086012;28;20378;-76
2022/12/05 06:04:26;;;;;;;31.70;20.27;;;4.80;99.90;;;;;;5077177;28;20051;-76
2022/12/05 06:06:52;;;;;;;32.83;20.35;;;;;;;;;;5082913;28;20036;-76
2022/12/05 06:09:18;;;;;;;36.53;20.98;;;4.80;99.90;;;;;;5048068;28;20056;-77
2022/12/05 06:11:43;;;;;;;38.20;23.05;;;4.80;99.90;;;;;;5081809;28;20506;-77
2022/12/05 06:14:09;;;;;;;39.40;22.98;;;4.80;99.90;;;;;;5038013;28;20048;-77
2022/12/05 06:16:34;;;;;;;39.33;23.33;;;4.80;99.90;;;;;;5078505;28;21327;-76
2022/12/05 06:19:00;;;;;;;34.70;20.95;;;4.80;99.90;;;;;;5076565;28;20043;-77
2022/12/05 06:21:26;;;;;;;38.13;21.98;;;4.80;99.90;;;;;;5045015;28;20071;-77
2022/12/05 06:23:53;;;;;;;32.63;22.00;;;4.80;99.90;;;;;;5078481;28;20177;-77
2022/12/05 06:26:20;;;;;;;26.10;17.55;;;4.80;99.90;;;;;;5082753;28;20040;-77
2022/12/05 06:28:45;;;;;;;35.85;21.38;;;4.90;99.90;;;;;;5056827;28;20052;-77
2022/12/05 06:31:18;;;;;;;32.90;21.08;;;4.80;99.90;;;;;;5086845;28;20508;-77
2022/12/05 06:33:44;;;;;;;30.67;18.83;;;5.00;99.90;;;;;;5055117;28;20045;-77
2022/12/05 06:36:13;;;;;;;30.05;19.80;;;4.80;99.90;;;;;;5077278;28;20040;-77
2022/12/05 06:38:38;;;;;;;28.90;18.48;;;4.80;99.90;;;;;;5062137;28;20036;-77
2022/12/05 06:41:10;;;;;;;27.08;18.42;;;4.90;99.90;;;;;;5082089;28;20490;-77
2022/12/05 06:43:35;;;;;;;28.70;18.90;;;4.90;99.90;;;;;;5059720;28;20040;-77
2022/12/05 06:46:05;;;;;;;28.17;17.75;;;;;;;;;;5086530;28;20363;-77
2022/12/05 06:48:31;;;;;;;18.80;12.95;;;4.90;99.90;;;;;;5062426;28;20058;-77
2022/12/05 06:50:56;;;;;;;25.10;15.98;;;5.00;99.90;;;;;;5080768;28;20111;-77
2022/12/05 06:53:22;;;;;;;22.70;14.18;;;5.00;99.90;;;;;;5056997;28;20044;-77
2022/12/05 06:55:59;;;;;;;24.73;16.95;;;5.00;99.90;;;;;;5080071;28;20036;-77
2022/12/05 06:58:26;;;;;;;23.87;14.77;;;5.00;99.90;;;;;;5079627;28;20036;-77
2022/12/05 07:03:36;;;;;;;18.63;11.45;;;5.00;99.90;;;;;;5060443;28;20192;-78
2022/12/05 07:06:04;;;;;;;22.17;14.95;;;5.00;99.90;;;;;;5074861;28;20127;-77
2022/12/05 07:08:30;;;;;;;19.65;13.82;;;5.00;99.90;;;;;;5073704;28;20059;-77
2022/12/05 07:10:56;;;;;;;22.25;14.30;;;5.00;99.90;;;;;;5074112;28;20044;-76
2022/12/05 07:13:22;;;;;;;12.82;9.15;;;5.10;99.90;;;;;;5076886;28;20063;-77
2022/12/05 07:15:49;;;;;;;16.02;11.65;;;5.10;99.90;;;;;;5059975;28;20044;-78
2022/12/05 07:18:16;;;;;;;15.80;11.63;;;5.10;99.90;;;;;;5077136;28;20149;-78
2022/12/05 07:20:42;;;;;;;13.13;9.95;;;5.10;99.90;;;;;;5078242;28;20036;-78
2022/12/05 07:23:08;;;;;;;16.45;12.95;;;5.10;99.90;;;;;;5060030;28;20032;-78
2022/12/05 07:25:41;;;;;;;17.52;12.10;;;5.10;99.90;;;;;;5075807;28;20033;-78
2022/12/05 07:28:07;;;;;;;17.08;12.88;;;5.10;99.90;;;;;;5077725;28;20090;-78
2022/12/05 07:30:33;;;;;;;18.55;12.50;;;5.10;99.90;;;;;;5077880;28;20446;-78
2022/12/05 07:32:59;;;;;;;18.17;13.05;;;5.10;99.90;;;;;;5083731;28;20045;-78
2022/12/05 07:35:24;;;;;;;20.10;13.98;;;5.10;99.90;;;;;;5085829;28;20105;-78
2022/12/05 07:37:50;;;;;;;18.30;13.43;;;5.10;99.90;;;;;;5072892;28;20040;-78
2022/12/05 07:40:15;;;;;;;18.02;11.80;;;5.10;99.90;;;;;;5081915;28;20055;-76
2022/12/05 07:42:41;;;;;;;21.17;13.23;;;5.10;99.90;;;;;;5077433;28;20069;-77
2022/12/05 07:45:07;;;;;;;24.20;13.30;;;5.10;99.90;;;;;;5079110;28;20060;-76
2022/12/05 07:47:33;;;;;;;19.40;14.00;;;5.10;99.90;;;;;;5066174;28;20065;-77
2022/12/05 07:49:58;;;;;;;18.63;13.10;;;5.10;99.90;;;;;;5062411;28;20044;-77
2022/12/05 07:52:24;;;;;;;20.25;13.43;;;5.10;99.90;;;;;;5060837;28;20550;-78
2022/12/05 07:54:49;;;;;;;21.55;13.30;;;5.10;99.90;;;;;;5061367;28;20159;-79
2022/12/05 07:57:15;;;;;;;17.27;12.73;;;5.10;99.90;;;;;;5058760;28;20044;-78
2022/12/05 07:59:40;;;;;;;15.88;11.55;;;5.10;99.90;;;;;;5084217;28;20503;-79
2022/12/05 08:02:07;;;;;;;14.25;9.32;;;5.20;99.90;;;;;;5069373;28;20511;-75
2022/12/05 08:04:33;;;;;;;13.32;9.63;;;5.20;99.90;;;;;;5081561;28;20051;-76
2022/12/05 08:06:59;;;;;;;12.98;9.68;;;5.20;99.90;;;;;;5081405;28;20040;-76
2022/12/05 08:09:25;;;;;;;12.25;8.75;;;5.20;99.90;;;;;;5066170;28;20055;-76
2022/12/05 08:11:51;;;;;;;10.80;8.88;;;;;;;;;;5083861;28;20062;-77
2022/12/05 08:14:16;;;;;;;9.65;8.00;;;5.20;99.90;;;;;;5091809;28;22025;-77
2022/12/05 08:16:42;;;;;;;8.98;7.63;;;5.20;99.90;;;;;;5081685;28;20036;-76
2022/12/05 08:19:12;;;;;;;5.72;4.97;;;5.20;99.90;;;;;;5073813;28;20055;-77
2022/12/05 08:21:38;;;;;;;8.07;7.07;;;5.30;99.90;;;;;;5072909;28;20048;-75
2022/12/05 08:24:05;;;;;;;8.68;6.30;;;5.20;99.90;;;;;;5090294;28;20120;-77
2022/12/05 08:26:32;;;;;;;6.55;5.75;;;5.30;99.90;;;;;;5083191;28;20084;-78
2022/12/05 08:29:00;;;;;;;6.40;5.80;;;5.30;99.90;;;;;;5079593;28;20040;-77
2022/12/05 08:31:28;;;;;;;6.45;5.75;;;5.30;99.90;;;;;;5089328;28;20047;-77
2022/12/05 08:33:55;;;;;;;;;;;5.30;99.90;;;;;;5055091;28;20040;-78
2022/12/05 08:36:21;;;;;;;5.20;4.70;;;5.30;99.90;;;;;;5087250;28;19920;-78
2022/12/05 08:38:47;;;;;;;7.07;5.93;;;5.40;99.90;;;;;;5088688;28;20195;-79
2022/12/05 08:41:15;;;;;;;6.30;4.97;;;5.40;99.90;;;;;;5074480;28;20098;-78
2022/12/05 08:43:43;;;;;;;5.97;4.38;;;5.30;99.90;;;;;;5086523;28;20482;-78
2022/12/05 08:46:09;;;;;;;5.93;4.95;;;5.30;99.90;;;;;;5066112;28;20127;-74
2022/12/05 08:48:36;;;;;;;6.15;5.50;;;5.30;99.90;;;;;;5062114;28;20052;-77
2022/12/05 08:51:07;;;;;;;7.10;6.03;;;5.40;99.90;;;;;;5084462;28;20040;-77
2022/12/05 08:53:33;;;;;;;8.32;5.95;;;5.40;99.90;;;;;;5079078;28;20453;-77
2022/12/05 08:56:01;;;;;;;6.00;5.40;;;5.30;99.90;;;;;;5095657;28;20048;-77
2022/12/05 08:58:27;;;;;;;6.22;5.63;;;5.40;99.90;;;;;;5085513;28;20043;-77
2022/12/05 09:00:52;;;;;;;6.60;5.43;;;5.40;99.90;;;;;;5062011;28;20175;-77
2022/12/05 09:03:18;;;;;;;5.13;4.60;;;5.40;99.90;;;;;;5090926;28;20127;-77
2022/12/05 09:05:44;;;;;;;4.97;3.20;;;5.40;99.90;;;;;;5094669;28;20036;-77
2022/12/05 09:08:09;;;;;;;6.07;5.20;;;5.40;99.90;;;;;;5093137;28;20512;-77
2022/12/05 09:10:37;;;;;;;6.03;4.60;;;5.40;99.90;;;;;;5085465;28;20039;-77
2022/12/05 09:13:02;;;;;;;6.47;4.63;;;5.40;99.90;;;;;;5093876;28;20051;-77
2022/12/05 09:15:28;;;;;;;5.35;3.92;;;5.50;99.90;;;;;;5086616;28;20040;-76
2022/12/05 09:17:53;;;;;;;7.88;5.53;;;5.40;99.90;;;;;;5090906;28;20584;-77
2022/12/05 09:20:19;;;;;;;6.22;5.65;;;5.40;99.90;;;;;;5066378;28;20048;-75
2022/12/05 09:22:44;;;;;;;6.00;4.85;;;5.50;99.90;;;;;;5070973;28;20116;-78
2022/12/05 09:25:10;;;;;;;7.03;5.53;;;5.50;99.90;;;;;;5100985;28;20043;-77
2022/12/05 09:27:36;;;;;;;5.60;4.22;;;5.50;99.90;;;;;;5072020;28;20128;-77
2022/12/05 09:30:03;;;;;;;6.75;5.70;;;5.40;99.90;;;;;;5100539;28;20032;-77
2022/12/05 09:32:29;;;;;;;6.72;5.32;;;5.50;99.90;;;;;;5084321;28;20507;-76
2022/12/05 09:34:55;;;;;;;7.57;5.03;;;5.40;99.90;;;;;;5082501;28;20040;-77
2022/12/05 09:37:20;;;;;;;7.53;4.40;;;5.40;99.90;;;;;;5100084;28;20355;-76
2022/12/05 09:39:46;;;;;;;5.72;5.13;;;5.40;99.90;;;;;;5055769;28;20080;-77
2022/12/05 09:42:23;;;;;;;5.97;5.40;;;5.40;99.90;;;;;;5084109;28;20054;-77
2022/12/05 09:45:01;;;;;;;6.05;5.22;;;5.40;99.90;;;;;;5081111;28;20059;-77
2022/12/05 09:47:33;;;;;;;6.35;5.43;;;5.40;99.90;;;;;;5082957;28;20139;-77
2022/12/05 09:50:13;;;;;;;7.80;5.93;;;5.40;99.90;;;;;;5081771;28;20090;-77
2022/12/05 09:53:04;;;;;;;5.93;5.10;;;5.40;99.90;;;;;;5074934;28;20548;-77
2022/12/05 09:56:08;;;;;;;7.20;6.50;;;5.40;99.90;;;;;;5065959;28;20055;-77
2022/12/05 09:58:36;;;;;;;7.57;6.53;;;5.40;99.90;;;;;;5086688;28;20177;-77
2022/12/05 10:01:27;;;;;;;8.00;6.35;;;5.40;99.90;;;;;;5081088;28;20399;-77
2022/12/05 10:04:12;;;;;;;9.15;6.38;;;5.40;99.90;;;;;;5079053;28;20040;-75
2022/12/05 10:07:09;;;;;;;5.72;4.68;;;5.40;99.90;;;;;;5065831;28;20052;-76
2022/12/05 10:09:58;;;;;;;9.10;6.63;;;5.30;99.90;;;;;;5093932;28;20397;-76
2022/12/05 10:12:54;;;;;;;9.68;6.90;;;5.30;99.90;;;;;;5086403;28;20055;-76
2022/12/05 10:15:55;;;;;;;10.05;7.40;;;5.30;99.90;;;;;;5093839;28;20075;-76
2022/12/05 10:18:30;;;;;;;11.55;7.40;;;5.30;99.90;;;;;;5047490;28;20088;-77
2022/12/05 10:21:05;;;;;;;7.55;6.47;;;5.30;99.90;;;;;;5090350;28;20028;-77
2022/12/05 10:23:43;;;;;;;7.88;6.80;;;5.30;99.90;;;;;;5085116;28;20513;-77
2022/12/05 10:26:13;;;;;;;9.80;6.80;;;5.30;99.90;;;;;;5061471;28;20052;-77
2022/12/05 10:29:10;;;;;;;9.23;6.82;;;5.30;99.90;;;;;;5073486;28;20499;-77
2022/12/05 10:31:37;;;;;;;8.52;6.70;;;5.20;99.90;;;;;;5061981;28;20055;-75
2022/12/05 10:34:08;;;;;;;9.80;5.82;;;5.30;99.90;;;;;;5085248;28;20036;-77
2022/12/05 10:36:34;;;;;;;9.52;7.25;;;5.20;99.90;;;;;;5088940;28;20055;-77
2022/12/05 10:38:59;;;;;;;10.05;7.05;;;5.30;99.90;;;;;;5070014;28;20409;-77
2022/12/05 10:41:25;;;;;;;8.75;7.43;;;5.20;99.90;;;;;;5086320;28;20044;-76
2022/12/05 10:43:51;;;;;;;7.05;6.10;;;5.30;99.90;;;;;;5058019;28;20044;-76
2022/12/05 10:46:17;;;;;;;10.90;7.95;;;5.30;99.90;;;;;;5081571;28;20052;-77
2022/12/05 10:48:42;;;;;;;7.60;5.30;;;5.30;99.90;;;;;;5074881;28;20094;-77
2022/12/05 10:51:17;;;;;;;13.07;7.55;;;5.30;99.90;;;;;;5076827;28;20471;-77
2022/12/05 10:53:49;;;;;;;8.75;6.97;;;5.30;99.90;;;;;;5057206;28;20052;-77
2022/12/05 10:56:38;;;;;;;11.07;7.13;;;5.30;99.90;;;;;;5083621;28;20044;-77
2022/12/05 10:59:06;;;;;;;10.30;7.28;;;5.30;99.90;;;;;;5049206;28;20044;-77
2022/12/05 11:01:32;;;;;;;9.43;7.75;;;5.30;99.90;;;;;;5086729;28;20486;-77
2022/12/05 11:04:00;;;;;;;10.23;7.05;;;5.30;99.90;;;;;;5076313;28;20052;-77
2022/12/05 11:06:29;;;;;;;10.15;8.30;;;5.30;99.90;;;;;;5081651;28;20040;-77
2022/12/05 11:08:57;;;;;;;11.50;7.45;;;5.30;99.90;;;;;;5067476;28;20051;-77
2022/12/05 11:11:27;;;;;;;;;;;5.30;99.90;;;;;;5080411;28;20474;-77
2022/12/05 11:14:03;;;;;;;7.50;5.10;;;5.20;99.90;;;;;;5054624;28;20370;-77
2022/12/05 11:16:35;;;;;;;11.52;7.43;;;5.20;99.90;;;;;;5067961;28;20207;-77
2022/12/05 11:19:23;;;;;;;16.23;7.78;;;5.30;99.90;;;;;;5087836;28;20039;-77
2022/12/05 11:21:49;;;;;;;11.85;7.97;;;5.20;99.90;;;;;;5080535;28;20048;-77
2022/12/05 11:24:35;;;;;;;10.23;7.60;;;5.20;99.90;;;;;;5089970;28;20038;-77
2022/12/05 11:27:16;;;;;;;13.18;8.05;;;5.20;99.90;;;;;;5065785;28;20048;-77
2022/12/05 11:30:02;;;;;;;12.88;8.90;;;5.20;99.90;;;;;;5066187;28;20106;-77
2022/12/05 11:32:35;;;;;;;10.38;6.63;;;5.20;99.90;;;;;;5091192;28;20047;-77
2022/12/05 11:35:12;;;;;;;10.68;7.25;;;5.20;99.90;;;;;;5093128;28;20420;-78
2022/12/05 11:37:38;;;;;;;13.90;7.13;;;5.20;99.90;;;;;;5076109;28;20071;-78
2022/12/05 11:40:17;;;;;;;11.90;8.18;;;5.20;99.90;;;;;;5091200;28;20131;-77
2022/12/05 11:43:01;;;;;;;10.20;5.97;;;5.20;99.90;;;;;;5068720;28;20040;-77
2022/12/05 11:45:42;;;;;;;9.63;7.38;;;5.10;99.90;;;;;;5071024;28;20059;-77
2022/12/05 11:48:37;;;;;;;11.23;8.20;;;5.10;99.90;;;;;;5079217;28;20047;-77
2022/12/05 11:51:13;;;;;;;11.25;7.32;;;5.20;99.90;;;;;;5054923;28;20076;-78
2022/12/05 11:54:13;;;;;;;9.93;7.35;;;5.10;99.90;;;;;;5065954;28;20145;-77
2022/12/05 11:56:44;;;;;;;9.95;6.13;;;5.10;99.90;;;;;;5085412;28;20083;-77
2022/12/05 11:59:38;;;;;;;10.98;7.55;;;5.10;99.90;;;;;;5093910;28;20044;-77
2022/12/05 12:02:17;;;;;;;9.27;5.65;;;5.10;99.90;;;;;;5067790;28;20044;-78
2022/12/05 12:04:48;;;;;;;11.68;7.80;;;5.10;99.90;;;;;;5083046;28;20051;-77
2022/12/05 12:07:41;;;;;;;7.57;6.25;;;5.10;99.90;;;;;;5081423;28;20082;-78
2022/12/05 12:10:17;;;;;;;10.27;7.10;;;5.10;99.90;;;;;;5081845;28;20041;-78
2022/12/05 12:13:20;;;;;;;8.77;4.85;;;5.10;99.90;;;;;;5081679;28;20448;-78
2022/12/05 12:15:59;;;;;;;9.93;6.75;;;5.00;99.90;;;;;;5070072;28;20135;-78
2022/12/05 12:19:03;;;;;;;14.93;8.10;;;5.10;99.90;;;;;;5068592;28;20044;-77
2022/12/05 12:21:40;;;;;;;8.90;6.72;;;5.10;99.90;;;;;;5069083;28;20147;-77
2022/12/05 12:24:09;;;;;;;11.02;6.90;;;5.10;99.90;;;;;;5084957;28;20052;-77
2022/12/05 12:26:45;;;;;;;9.80;6.80;;;5.10;99.90;;;;;;5089026;28;20440;-78
2022/12/05 12:29:20;;;;;;;7.20;4.78;;;5.10;99.90;;;;;;5084992;28;20045;-78
2022/12/05 12:31:57;;;;;;;8.77;6.28;;;5.10;99.90;;;;;;5088192;28;20036;-77
2022/12/05 12:34:52;;;;;;;11.07;6.97;;;5.10;99.90;;;;;;5085824;28;20040;-77
2022/12/05 12:37:20;;;;;;;8.23;5.80;;;5.10;99.90;;;;;;5046779;28;20247;-77
2022/12/05 12:39:49;;;;;;;7.97;6.35;;;5.10;99.90;;;;;;5084828;28;20135;-77
2022/12/05 12:42:26;;;;;;;10.52;5.82;;;5.10;99.90;;;;;;5061824;28;20047;-77
2022/12/05 12:45:03;;;;;;;9.27;5.47;;;5.10;99.90;;;;;;5068154;28;20367;-77
2022/12/05 12:48:05;;;;;;;10.40;6.43;;;5.10;99.90;;;;;;5066209;28;20036;-77
2022/12/05 12:50:32;;;;;;;8.07;6.10;;;5.10;99.90;;;;;;5052682;28;20044;-77
2022/12/05 12:53:23;;;;;;;8.53;6.30;;;5.10;99.90;;;;;;5082232;28;20070;-77
2022/12/05 12:56:26;;;;;;;11.27;6.57;;;5.10;99.90;;;;;;5083281;28;20558;-77
2022/12/05 12:59:13;;;;;;;6.15;5.15;;;5.10;99.90;;;;;;5088854;28;20039;-77
2022/12/05 13:02:12;;;;;;;7.57;6.47;;;5.10;99.90;;;;;;5083842;28;20044;-77
2022/12/05 13:04:53;;;;;;;8.70;6.05;;;5.10;99.90;;;;;;5068940;28;20044;-77
2022/12/05 13:07:33;;;;;;;9.15;5.95;;;5.10;99.90;;;;;;5087530;28;20045;-77
2022/12/05 13:10:12;;;;;;;9.30;6.53;;;5.10;99.90;;;;;;5083716;28;20044;-78
2022/12/05 13:12:39;;;;;;;10.10;5.80;;;5.10;99.90;;;;;;5063120;28;20048;-78
2022/12/05 13:15:14;;;;;;;7.72;5.68;;;5.10;99.90;;;;;;5064630;28;20041;-78
2022/12/05 13:17:41;;;;;;;6.75;6.05;;;5.10;99.90;;;;;;5053016;28;20059;-78
2022/12/05 13:20:18;;;;;;;8.55;5.60;;;5.20;99.90;;;;;;5091024;28;20067;-78
2022/12/05 13:22:45;;;;;;;7.38;5.70;;;5.10;99.90;;;;;;5102340;28;20055;-78
2022/12/05 13:25:15;;;;;;;6.22;4.93;;;5.20;99.90;;;;;;5091882;28;20500;-77